Arnesen, Minnesota
Current Conditions -  °F | °C
As of 12:14 PM on Thursday 27 Nov 2014 (Local Time) from KRRT Reporting Station
Clear Clear  
Wind Chill: -15°   Ceiling: Unl
Heat Index:   Visibility: 10mi
Dew Point: -8°   Wind: 8mph
Humidity: 72%   Direction: 240°WSW
Pressure: 30.39"   Gusts: NA
Location:  48.6345°N, 95.1786°W
Report Text: KRRT 271814Z AUTO 24007KT 10SM CLR M18/M22 A3039 RMK AO2
Loading
Personal Weather Stations






























Interactive Weather Map New forecast layout! Learn more

10-Day Weather Forecast

Advertisements
Track Severe Weather on mobile